sensor_id;sensor_type;location;lat;lon;timestamp;temperature;humidity
8539;DHT22;4307;53.868;11.680;2022-11-20T00:00:03;2.70;99.90
8539;DHT22;4307;53.868;11.680;2022-11-20T00:02:30;2.70;99.90
8539;DHT22;4307;53.868;11.680;2022-11-20T00:04:56;2.70;99.90
8539;DHT22;4307;53.868;11.680;2022-11-20T00:07:24;2.70;99.90
8539;DHT22;4307;53.868;11.680;2022-11-20T00:09:51;2.70;99.90
8539;DHT22;4307;53.868;11.680;2022-11-20T00:12:18;2.70;99.90
8539;DHT22;4307;53.868;11.680;2022-11-20T00:14:44;2.70;99.90
8539;DHT22;4307;53.868;11.680;2022-11-20T00:17:11;2.70;99.90
8539;DHT22;4307;53.868;11.680;2022-11-20T00:19:38;2.70;99.90
8539;DHT22;4307;53.868;11.680;2022-11-20T00:22:04;2.70;99.90
8539;DHT22;4307;53.868;11.680;2022-11-20T00:24:32;2.70;99.90
8539;DHT22;4307;53.868;11.680;2022-11-20T00:26:59;2.70;99.90
8539;DHT22;4307;53.868;11.680;2022-11-20T00:29:25;2.70;99.90
8539;DHT22;4307;53.868;11.680;2022-11-20T00:31:52;2.70;99.90
8539;DHT22;4307;53.868;11.680;2022-11-20T00:34:19;2.70;99.90
8539;DHT22;4307;53.868;11.680;2022-11-20T00:36:45;2.70;99.90
8539;DHT22;4307;53.868;11.680;2022-11-20T00:39:12;2.70;99.90
8539;DHT22;4307;53.868;11.680;2022-11-20T00:41:40;2.70;99.90
8539;DHT22;4307;53.868;11.680;2022-11-20T00:44:06;2.80;99.90
8539;DHT22;4307;53.868;11.680;2022-11-20T00:46:33;2.80;99.90
8539;DHT22;4307;53.868;11.680;2022-11-20T00:49:00;2.80;99.90
8539;DHT22;4307;53.868;11.680;2022-11-20T00:51:27;2.80;99.90
8539;DHT22;4307;53.868;11.680;2022-11-20T00:53:55;2.80;99.90
8539;DHT22;4307;53.868;11.680;2022-11-20T00:56:22;2.90;99.90
8539;DHT22;4307;53.868;11.680;2022-11-20T00:58:50;2.90;99.90
8539;DHT22;4307;53.868;11.680;2022-11-20T01:01:18;2.90;99.90
8539;DHT22;4307;53.868;11.680;2022-11-20T01:03:46;2.90;99.90
8539;DHT22;4307;53.868;11.680;2022-11-20T01:06:16;2.90;99.90
8539;DHT22;4307;53.868;11.680;2022-11-20T01:08:43;2.90;99.90
8539;DHT22;4307;53.868;11.680;2022-11-20T01:11:12;2.90;99.90
8539;DHT22;4307;53.868;11.680;2022-11-20T01:13:39;2.90;99.90
8539;DHT22;4307;53.868;11.680;2022-11-20T01:16:10;2.90;99.90
8539;DHT22;4307;53.868;11.680;2022-11-20T01:18:38;2.90;99.90
8539;DHT22;4307;53.868;11.680;2022-11-20T01:21:06;2.90;99.90
8539;DHT22;4307;53.868;11.680;2022-11-20T01:23:34;2.90;99.90
8539;DHT22;4307;53.868;11.680;2022-11-20T01:26:02;2.80;99.90
8539;DHT22;4307;53.868;11.680;2022-11-20T01:28:29;2.80;99.90
8539;DHT22;4307;53.868;11.680;2022-11-20T01:30:56;2.80;99.90
8539;DHT22;4307;53.868;11.680;2022-11-20T01:33:25;2.80;99.90
8539;DHT22;4307;53.868;11.680;2022-11-20T01:35:51;2.80;99.90
8539;DHT22;4307;53.868;11.680;2022-11-20T01:38:19;2.70;99.90
8539;DHT22;4307;53.868;11.680;2022-11-20T01:40:54;2.70;99.90
8539;DHT22;4307;53.868;11.680;2022-11-20T01:43:21;2.70;99.90
8539;DHT22;4307;53.868;11.680;2022-11-20T01:45:56;2.70;99.90
8539;DHT22;4307;53.868;11.680;2022-11-20T01:48:27;2.70;99.90
8539;DHT22;4307;53.868;11.680;2022-11-20T01:50:54;2.70;99.90
8539;DHT22;4307;53.868;11.680;2022-11-20T01:53:25;2.70;99.90
8539;DHT22;4307;53.868;11.680;2022-11-20T01:55:55;2.70;99.90
8539;DHT22;4307;53.868;11.680;2022-11-20T01:58:27;2.70;99.90
8539;DHT22;4307;53.868;11.680;2022-11-20T02:00:54;2.70;99.90
8539;DHT22;4307;53.868;11.680;2022-11-20T02:03:21;2.80;99.90
8539;DHT22;4307;53.868;11.680;2022-11-20T02:05:51;2.80;99.90
8539;DHT22;4307;53.868;11.680;2022-11-20T02:08:21;2.90;99.90
8539;DHT22;4307;53.868;11.680;2022-11-20T02:10:48;2.90;99.90
8539;DHT22;4307;53.868;11.680;2022-11-20T02:13:15;2.90;99.90
8539;DHT22;4307;53.868;11.680;2022-11-20T02:15:59;2.90;99.90
8539;DHT22;4307;53.868;11.680;2022-11-20T02:18:26;2.90;99.90
8539;DHT22;4307;53.868;11.680;2022-11-20T02:21:00;2.90;99.90
8539;DHT22;4307;53.868;11.680;2022-11-20T02:23:31;2.80;99.90
8539;DHT22;4307;53.868;11.680;2022-11-20T02:26:02;2.80;99.90
8539;DHT22;4307;53.868;11.680;2022-11-20T02:28:31;2.80;99.90
8539;DHT22;4307;53.868;11.680;2022-11-20T02:30:57;2.70;99.90
8539;DHT22;4307;53.868;11.680;2022-11-20T02:33:24;2.70;99.90
8539;DHT22;4307;53.868;11.680;2022-11-20T02:35:51;2.60;99.90
8539;DHT22;4307;53.868;11.680;2022-11-20T02:38:17;2.60;99.90
8539;DHT22;4307;53.868;11.680;2022-11-20T02:40:44;2.60;99.90
8539;DHT22;4307;53.868;11.680;2022-11-20T02:43:12;2.50;99.90
8539;DHT22;4307;53.868;11.680;2022-11-20T02:45:39;2.50;99.90
8539;DHT22;4307;53.868;11.680;2022-11-20T02:48:06;2.50;99.90
8539;DHT22;4307;53.868;11.680;2022-11-20T02:50:36;2.50;99.90
8539;DHT22;4307;53.868;11.680;2022-11-20T02:53:02;2.50;99.90
8539;DHT22;4307;53.868;11.680;2022-11-20T02:55:29;2.60;99.90
8539;DHT22;4307;53.868;11.680;2022-11-20T02:57:56;2.70;99.90
8539;DHT22;4307;53.868;11.680;2022-11-20T03:00:24;2.70;99.90
8539;DHT22;4307;53.868;11.680;2022-11-20T03:02:51;2.70;99.90
8539;DHT22;4307;53.868;11.680;2022-11-20T03:05:17;2.80;99.90
8539;DHT22;4307;53.868;11.680;2022-11-20T03:07:44;2.80;99.90
8539;DHT22;4307;53.868;11.680;2022-11-20T03:10:11;2.80;99.90
8539;DHT22;4307;53.868;11.680;2022-11-20T03:12:38;2.80;99.90
8539;DHT22;4307;53.868;11.680;2022-11-20T03:15:05;2.90;99.90
8539;DHT22;4307;53.868;11.680;2022-11-20T03:17:33;2.90;99.90
8539;DHT22;4307;53.868;11.680;2022-11-20T03:20:00;2.80;99.90
8539;DHT22;4307;53.868;11.680;2022-11-20T03:22:28;2.80;99.90
8539;DHT22;4307;53.868;11.680;2022-11-20T03:24:55;2.70;99.90
8539;DHT22;4307;53.868;11.680;2022-11-20T03:27:22;2.70;99.90
8539;DHT22;4307;53.868;11.680;2022-11-20T03:29:48;2.70;99.90
8539;DHT22;4307;53.868;11.680;2022-11-20T03:32:15;2.70;99.90
8539;DHT22;4307;53.868;11.680;2022-11-20T03:34:43;2.70;99.90
8539;DHT22;4307;53.868;11.680;2022-11-20T03:37:10;2.60;99.90
8539;DHT22;4307;53.868;11.680;2022-11-20T03:39:36;2.60;99.90
8539;DHT22;4307;53.868;11.680;2022-11-20T03:42:03;2.60;99.90
8539;DHT22;4307;53.868;11.680;2022-11-20T03:44:50;2.60;99.90
8539;DHT22;4307;53.868;11.680;2022-11-20T03:47:16;2.50;99.90
8539;DHT22;4307;53.868;11.680;2022-11-20T03:49:44;2.50;99.90
8539;DHT22;4307;53.868;11.680;2022-11-20T03:52:11;2.50;99.90
8539;DHT22;4307;53.868;11.680;2022-11-20T03:54:37;2.50;99.90
8539;DHT22;4307;53.868;11.680;2022-11-20T03:57:04;2.50;99.90
8539;DHT22;4307;53.868;11.680;2022-11-20T03:59:31;2.50;99.90
8539;DHT22;4307;53.868;11.680;2022-11-20T04:01:57;2.50;99.90
8539;DHT22;4307;53.868;11.680;2022-11-20T04:04:24;2.40;99.90
8539;DHT22;4307;53.868;11.680;2022-11-20T04:06:52;2.40;99.90
8539;DHT22;4307;53.868;11.680;2022-11-20T04:09:19;2.40;99.90
8539;DHT22;4307;53.868;11.680;2022-11-20T04:11:45;2.40;99.90
8539;DHT22;4307;53.868;11.680;2022-11-20T04:14:14;2.40;99.90
8539;DHT22;4307;53.868;11.680;2022-11-20T04:16:41;2.50;99.90
8539;DHT22;4307;53.868;11.680;2022-11-20T04:19:11;2.50;99.90
8539;DHT22;4307;53.868;11.680;2022-11-20T04:21:38;2.50;99.90
8539;DHT22;4307;53.868;11.680;2022-11-20T04:24:07;2.50;99.90
8539;DHT22;4307;53.868;11.680;2022-11-20T04:26:35;2.50;99.90
8539;DHT22;4307;53.868;11.680;2022-11-20T04:29:03;2.50;99.90
8539;DHT22;4307;53.868;11.680;2022-11-20T04:31:32;2.50;99.90
8539;DHT22;4307;53.868;11.680;2022-11-20T04:34:00;2.40;99.90
8539;DHT22;4307;53.868;11.680;2022-11-20T04:36:29;2.40;99.90
8539;DHT22;4307;53.868;11.680;2022-11-20T04:38:57;2.40;99.90
8539;DHT22;4307;53.868;11.680;2022-11-20T04:41:27;2.40;99.90
8539;DHT22;4307;53.868;11.680;2022-11-20T04:43:55;2.40;99.90
8539;DHT22;4307;53.868;11.680;2022-11-20T04:46:25;2.40;99.90
8539;DHT22;4307;53.868;11.680;2022-11-20T04:48:53;2.40;99.90
8539;DHT22;4307;53.868;11.680;2022-11-20T04:51:19;2.40;99.90
8539;DHT22;4307;53.868;11.680;2022-11-20T04:53:46;2.50;99.90
8539;DHT22;4307;53.868;11.680;2022-11-20T04:56:13;2.50;99.90
8539;DHT22;4307;53.868;11.680;2022-11-20T04:58:41;2.50;99.90
8539;DHT22;4307;53.868;11.680;2022-11-20T05:01:10;2.60;99.90
8539;DHT22;4307;53.868;11.680;2022-11-20T05:03:37;2.60;99.90
8539;DHT22;4307;53.868;11.680;2022-11-20T05:06:05;2.60;99.90
8539;DHT22;4307;53.868;11.680;2022-11-20T05:08:32;2.70;99.90
8539;DHT22;4307;53.868;11.680;2022-11-20T05:11:00;2.70;99.90
8539;DHT22;4307;53.868;11.680;2022-11-20T05:13:27;2.70;99.90
8539;DHT22;4307;53.868;11.680;2022-11-20T05:15:55;2.70;99.90
8539;DHT22;4307;53.868;11.680;2022-11-20T05:18:27;2.70;99.90
8539;DHT22;4307;53.868;11.680;2022-11-20T05:20:55;2.70;99.90
8539;DHT22;4307;53.868;11.680;2022-11-20T05:23:22;2.70;99.90
8539;DHT22;4307;53.868;11.680;2022-11-20T05:25:52;2.70;99.90
8539;DHT22;4307;53.868;11.680;2022-11-20T05:28:19;2.70;99.90
8539;DHT22;4307;53.868;11.680;2022-11-20T05:30:45;2.70;99.90
8539;DHT22;4307;53.868;11.680;2022-11-20T05:33:13;2.70;99.90
8539;DHT22;4307;53.868;11.680;2022-11-20T05:35:40;2.60;99.90
8539;DHT22;4307;53.868;11.680;2022-11-20T05:38:07;2.60;99.90
8539;DHT22;4307;53.868;11.680;2022-11-20T05:40:34;2.60;99.90
8539;DHT22;4307;53.868;11.680;2022-11-20T05:43:00;2.60;99.90
8539;DHT22;4307;53.868;11.680;2022-11-20T05:45:27;2.60;99.90
8539;DHT22;4307;53.868;11.680;2022-11-20T05:47:57;2.70;99.90
8539;DHT22;4307;53.868;11.680;2022-11-20T05:50:26;2.70;99.90
8539;DHT22;4307;53.868;11.680;2022-11-20T05:52:52;2.70;99.90
8539;DHT22;4307;53.868;11.680;2022-11-20T05:55:19;2.70;99.90
8539;DHT22;4307;53.868;11.680;2022-11-20T05:57:46;2.70;99.90
8539;DHT22;4307;53.868;11.680;2022-11-20T06:00:13;2.70;99.90
8539;DHT22;4307;53.868;11.680;2022-11-20T06:02:40;2.80;99.90
8539;DHT22;4307;53.868;11.680;2022-11-20T06:05:07;2.80;99.90
8539;DHT22;4307;53.868;11.680;2022-11-20T06:07:37;2.80;99.90
8539;DHT22;4307;53.868;11.680;2022-11-20T06:10:04;2.90;99.90
8539;DHT22;4307;53.868;11.680;2022-11-20T06:12:31;2.90;99.90
8539;DHT22;4307;53.868;11.680;2022-11-20T06:14:58;2.90;99.90
8539;DHT22;4307;53.868;11.680;2022-11-20T06:17:24;2.90;99.90
8539;DHT22;4307;53.868;11.680;2022-11-20T06:19:51;2.90;99.90
8539;DHT22;4307;53.868;11.680;2022-11-20T06:22:18;2.90;99.90
8539;DHT22;4307;53.868;11.680;2022-11-20T06:24:46;2.90;99.90
8539;DHT22;4307;53.868;11.680;2022-11-20T06:27:12;2.90;99.90
8539;DHT22;4307;53.868;11.680;2022-11-20T06:29:39;2.90;99.90
8539;DHT22;4307;53.868;11.680;2022-11-20T06:32:06;2.90;99.90
8539;DHT22;4307;53.868;11.680;2022-11-20T06:34:32;2.90;99.90
8539;DHT22;4307;53.868;11.680;2022-11-20T06:36:59;2.80;99.90
8539;DHT22;4307;53.868;11.680;2022-11-20T06:39:26;2.80;99.90
8539;DHT22;4307;53.868;11.680;2022-11-20T06:41:54;2.80;99.90
8539;DHT22;4307;53.868;11.680;2022-11-20T06:44:20;2.80;99.90
8539;DHT22;4307;53.868;11.680;2022-11-20T06:46:47;2.80;99.90
8539;DHT22;4307;53.868;11.680;2022-11-20T06:49:13;2.80;99.90
8539;DHT22;4307;53.868;11.680;2022-11-20T06:51:40;2.80;99.90
8539;DHT22;4307;53.868;11.680;2022-11-20T06:54:07;2.80;99.90
8539;DHT22;4307;53.868;11.680;2022-11-20T06:56:33;2.90;99.90
8539;DHT22;4307;53.868;11.680;2022-11-20T06:59:05;2.90;99.90
8539;DHT22;4307;53.868;11.680;2022-11-20T07:01:32;2.90;99.90
8539;DHT22;4307;53.868;11.680;2022-11-20T07:03:58;2.90;99.90
8539;DHT22;4307;53.868;11.680;2022-11-20T07:06:25;2.90;99.90
8539;DHT22;4307;53.868;11.680;2022-11-20T07:08:52;2.90;99.90
8539;DHT22;4307;53.868;11.680;2022-11-20T07:11:19;2.90;99.90
8539;DHT22;4307;53.868;11.680;2022-11-20T07:13:46;2.80;99.90
8539;DHT22;4307;53.868;11.680;2022-11-20T07:16:14;2.80;99.90
8539;DHT22;4307;53.868;11.680;2022-11-20T07:18:40;2.80;99.90
8539;DHT22;4307;53.868;11.680;2022-11-20T07:21:09;2.80;99.90
8539;DHT22;4307;53.868;11.680;2022-11-20T07:23:36;2.80;99.90
8539;DHT22;4307;53.868;11.680;2022-11-20T07:26:04;2.80;99.90
8539;DHT22;4307;53.868;11.680;2022-11-20T07:28:31;2.80;99.90
8539;DHT22;4307;53.868;11.680;2022-11-20T07:30:58;2.80;99.90
8539;DHT22;4307;53.868;11.680;2022-11-20T07:33:26;2.80;99.90
8539;DHT22;4307;53.868;11.680;2022-11-20T07:35:53;2.80;99.90
8539;DHT22;4307;53.868;11.680;2022-11-20T07:38:19;2.80;99.90
8539;DHT22;4307;53.868;11.680;2022-11-20T07:40:46;2.70;99.90
8539;DHT22;4307;53.868;11.680;2022-11-20T07:43:13;2.60;99.90
8539;DHT22;4307;53.868;11.680;2022-11-20T07:45:39;2.70;99.90
8539;DHT22;4307;53.868;11.680;2022-11-20T07:48:06;2.60;99.90
8539;DHT22;4307;53.868;11.680;2022-11-20T07:50:34;2.70;99.90
8539;DHT22;4307;53.868;11.680;2022-11-20T07:53:02;2.60;99.90
8539;DHT22;4307;53.868;11.680;2022-11-20T07:55:29;2.50;99.90
8539;DHT22;4307;53.868;11.680;2022-11-20T07:57:56;2.50;99.90
8539;DHT22;4307;53.868;11.680;2022-11-20T08:00:23;2.50;99.90
8539;DHT22;4307;53.868;11.680;2022-11-20T08:02:50;2.50;99.90
8539;DHT22;4307;53.868;11.680;2022-11-20T08:05:16;2.40;99.90
8539;DHT22;4307;53.868;11.680;2022-11-20T08:07:45;2.40;99.90
8539;DHT22;4307;53.868;11.680;2022-11-20T08:10:13;2.40;99.90
8539;DHT22;4307;53.868;11.680;2022-11-20T08:12:44;2.40;99.90
8539;DHT22;4307;53.868;11.680;2022-11-20T08:15:28;2.40;99.90
8539;DHT22;4307;53.868;11.680;2022-11-20T08:18:00;2.30;99.90
8539;DHT22;4307;53.868;11.680;2022-11-20T08:20:26;2.30;99.90
8539;DHT22;4307;53.868;11.680;2022-11-20T08:22:59;2.30;99.90
8539;DHT22;4307;53.868;11.680;2022-11-20T08:25:26;2.20;99.90
8539;DHT22;4307;53.868;11.680;2022-11-20T08:27:53;2.30;99.90
8539;DHT22;4307;53.868;11.680;2022-11-20T08:30:20;2.30;99.90
8539;DHT22;4307;53.868;11.680;2022-11-20T08:32:46;2.30;99.90
8539;DHT22;4307;53.868;11.680;2022-11-20T08:35:13;2.30;99.90
8539;DHT22;4307;53.868;11.680;2022-11-20T08:37:40;2.40;99.90
8539;DHT22;4307;53.868;11.680;2022-11-20T08:40:10;2.40;99.90
8539;DHT22;4307;53.868;11.680;2022-11-20T08:42:45;2.30;99.90
8539;DHT22;4307;53.868;11.680;2022-11-20T08:45:11;2.40;99.90
8539;DHT22;4307;53.868;11.680;2022-11-20T08:47:38;2.40;99.90
8539;DHT22;4307;53.868;11.680;2022-11-20T08:50:06;2.40;99.90
8539;DHT22;4307;53.868;11.680;2022-11-20T08:52:33;2.40;99.90
8539;DHT22;4307;53.868;11.680;2022-11-20T08:54:59;2.40;99.90
8539;DHT22;4307;53.868;11.680;2022-11-20T08:57:27;2.40;99.90
8539;DHT22;4307;53.868;11.680;2022-11-20T08:59:54;2.50;99.90
8539;DHT22;4307;53.868;11.680;2022-11-20T09:02:21;2.40;99.90
8539;DHT22;4307;53.868;11.680;2022-11-20T09:04:47;2.40;99.90
8539;DHT22;4307;53.868;11.680;2022-11-20T09:07:14;2.40;99.90
8539;DHT22;4307;53.868;11.680;2022-11-20T09:09:41;2.50;99.90
8539;DHT22;4307;53.868;11.680;2022-11-20T09:12:07;2.50;99.90
8539;DHT22;4307;53.868;11.680;2022-11-20T09:14:35;2.50;99.90
8539;DHT22;4307;53.868;11.680;2022-11-20T09:17:02;2.60;99.90
8539;DHT22;4307;53.868;11.680;2022-11-20T09:19:30;2.50;99.90
8539;DHT22;4307;53.868;11.680;2022-11-20T09:21:56;2.50;99.90
8539;DHT22;4307;53.868;11.680;2022-11-20T09:24:23;2.60;99.90
8539;DHT22;4307;53.868;11.680;2022-11-20T09:26:50;2.60;99.90
8539;DHT22;4307;53.868;11.680;2022-11-20T09:29:17;2.60;99.90
8539;DHT22;4307;53.868;11.680;2022-11-20T09:31:45;2.70;99.90
8539;DHT22;4307;53.868;11.680;2022-11-20T09:34:12;2.80;99.90
8539;DHT22;4307;53.868;11.680;2022-11-20T09:36:38;2.90;99.90
8539;DHT22;4307;53.868;11.680;2022-11-20T09:39:05;3.00;99.90
8539;DHT22;4307;53.868;11.680;2022-11-20T09:41:41;3.10;99.90
8539;DHT22;4307;53.868;11.680;2022-11-20T09:44:24;3.00;99.90
8539;DHT22;4307;53.868;11.680;2022-11-20T09:46:58;2.90;99.90
8539;DHT22;4307;53.868;11.680;2022-11-20T09:49:35;2.80;99.90
8539;DHT22;4307;53.868;11.680;2022-11-20T09:52:10;2.70;99.90
8539;DHT22;4307;53.868;11.680;2022-11-20T09:54:41;2.60;99.90
8539;DHT22;4307;53.868;11.680;2022-11-20T09:57:11;2.50;99.90
8539;DHT22;4307;53.868;11.680;2022-11-20T09:59:41;2.50;99.90
8539;DHT22;4307;53.868;11.680;2022-11-20T10:02:16;2.60;99.90
8539;DHT22;4307;53.868;11.680;2022-11-20T10:04:51;2.60;99.90
8539;DHT22;4307;53.868;11.680;2022-11-20T10:07:21;2.60;99.90
8539;DHT22;4307;53.868;11.680;2022-11-20T10:09:52;2.50;99.90
8539;DHT22;4307;53.868;11.680;2022-11-20T10:12:25;2.50;99.90
8539;DHT22;4307;53.868;11.680;2022-11-20T10:15:02;2.50;99.90
8539;DHT22;4307;53.868;11.680;2022-11-20T10:17:48;2.50;99.90
8539;DHT22;4307;53.868;11.680;2022-11-20T10:20:25;2.40;99.90
8539;DHT22;4307;53.868;11.680;2022-11-20T10:23:08;2.30;99.90
8539;DHT22;4307;53.868;11.680;2022-11-20T10:25:39;2.20;99.90
8539;DHT22;4307;53.868;11.680;2022-11-20T10:28:22;2.30;99.90
8539;DHT22;4307;53.868;11.680;2022-11-20T10:30:56;2.30;99.90
8539;DHT22;4307;53.868;11.680;2022-11-20T10:33:26;2.30;99.90
8539;DHT22;4307;53.868;11.680;2022-11-20T10:36:00;2.30;99.90
8539;DHT22;4307;53.868;11.680;2022-11-20T10:38:34;2.40;99.90
8539;DHT22;4307;53.868;11.680;2022-11-20T10:41:03;2.40;99.90
8539;DHT22;4307;53.868;11.680;2022-11-20T10:43:45;2.40;99.90
8539;DHT22;4307;53.868;11.680;2022-11-20T10:46:15;2.40;99.90
8539;DHT22;4307;53.868;11.680;2022-11-20T10:48:45;2.40;99.90
8539;DHT22;4307;53.868;11.680;2022-11-20T10:51:18;2.40;99.90
8539;DHT22;4307;53.868;11.680;2022-11-20T10:53:55;2.50;99.90
8539;DHT22;4307;53.868;11.680;2022-11-20T10:56:27;2.50;99.90
8539;DHT22;4307;53.868;11.680;2022-11-20T10:59:05;2.60;99.90
8539;DHT22;4307;53.868;11.680;2022-11-20T11:01:39;2.60;99.90
8539;DHT22;4307;53.868;11.680;2022-11-20T11:04:23;2.70;99.90
8539;DHT22;4307;53.868;11.680;2022-11-20T11:06:51;2.80;99.90
8539;DHT22;4307;53.868;11.680;2022-11-20T11:09:27;2.90;99.90
8539;DHT22;4307;53.868;11.680;2022-11-20T11:11:58;3.10;99.90
8539;DHT22;4307;53.868;11.680;2022-11-20T11:14:25;3.20;99.90
8539;DHT22;4307;53.868;11.680;2022-11-20T11:16:53;3.20;99.90
8539;DHT22;4307;53.868;11.680;2022-11-20T11:19:22;3.10;99.90
8539;DHT22;4307;53.868;11.680;2022-11-20T11:21:52;3.00;99.90
8539;DHT22;4307;53.868;11.680;2022-11-20T11:24:21;3.00;99.90
8539;DHT22;4307;53.868;11.680;2022-11-20T11:26:55;3.00;99.90
8539;DHT22;4307;53.868;11.680;2022-11-20T11:29:22;2.90;99.90
8539;DHT22;4307;53.868;11.680;2022-11-20T11:32:03;3.00;99.90
8539;DHT22;4307;53.868;11.680;2022-11-20T11:34:31;3.10;99.90
8539;DHT22;4307;53.868;11.680;2022-11-20T11:36:58;3.20;99.90
8539;DHT22;4307;53.868;11.680;2022-11-20T11:39:27;3.30;99.90
8539;DHT22;4307;53.868;11.680;2022-11-20T11:41:55;3.30;99.90
8539;DHT22;4307;53.868;11.680;2022-11-20T11:44:24;3.30;99.90
8539;DHT22;4307;53.868;11.680;2022-11-20T11:47:21;3.30;99.90
8539;DHT22;4307;53.868;11.680;2022-11-20T11:50:01;3.30;99.90
8539;DHT22;4307;53.868;11.680;2022-11-20T11:52:29;3.30;99.90
8539;DHT22;4307;53.868;11.680;2022-11-20T11:54:58;3.30;99.90
8539;DHT22;4307;53.868;11.680;2022-11-20T11:57:29;3.30;99.90
8539;DHT22;4307;53.868;11.680;2022-11-20T12:00:05;3.30;99.90
8539;DHT22;4307;53.868;11.680;2022-11-20T12:02:36;3.20;99.90
8539;DHT22;4307;53.868;11.680;2022-11-20T12:05:15;3.10;99.90
8539;DHT22;4307;53.868;11.680;2022-11-20T12:07:46;3.00;99.90
8539;DHT22;4307;53.868;11.680;2022-11-20T12:10:19;2.90;99.90
8539;DHT22;4307;53.868;11.680;2022-11-20T12:12:51;2.90;99.90
8539;DHT22;4307;53.868;11.680;2022-11-20T12:15:26;2.80;99.90
8539;DHT22;4307;53.868;11.680;2022-11-20T12:17:53;2.70;99.90
8539;DHT22;4307;53.868;11.680;2022-11-20T12:20:22;2.70;99.90
8539;DHT22;4307;53.868;11.680;2022-11-20T12:22:54;2.70;99.90
8539;DHT22;4307;53.868;11.680;2022-11-20T12:25:24;2.70;99.90
8539;DHT22;4307;53.868;11.680;2022-11-20T12:28:07;2.70;99.90
8539;DHT22;4307;53.868;11.680;2022-11-20T12:30:41;2.80;99.90
8539;DHT22;4307;53.868;11.680;2022-11-20T12:33:40;2.80;99.90
8539;DHT22;4307;53.868;11.680;2022-11-20T12:36:19;2.80;99.90
8539;DHT22;4307;53.868;11.680;2022-11-20T12:39:16;2.90;99.90
8539;DHT22;4307;53.868;11.680;2022-11-20T12:42:17;2.90;99.90
8539;DHT22;4307;53.868;11.680;2022-11-20T12:45:17;2.90;99.90
8539;DHT22;4307;53.868;11.680;2022-11-20T12:48:04;2.90;99.90
8539;DHT22;4307;53.868;11.680;2022-11-20T12:50:45;3.00;99.90
8539;DHT22;4307;53.868;11.680;2022-11-20T12:53:25;3.10;99.90
8539;DHT22;4307;53.868;11.680;2022-11-20T12:56:00;3.30;99.90
8539;DHT22;4307;53.868;11.680;2022-11-20T12:58:37;3.30;99.90
8539;DHT22;4307;53.868;11.680;2022-11-20T13:01:16;3.40;99.90
8539;DHT22;4307;53.868;11.680;2022-11-20T13:04:08;3.50;99.90
8539;DHT22;4307;53.868;11.680;2022-11-20T13:06:36;3.50;99.90
8539;DHT22;4307;53.868;11.680;2022-11-20T13:09:09;3.60;99.90
8539;DHT22;4307;53.868;11.680;2022-11-20T13:11:43;3.70;99.90
8539;DHT22;4307;53.868;11.680;2022-11-20T13:14:24;3.70;99.90
8539;DHT22;4307;53.868;11.680;2022-11-20T13:16:56;3.80;99.90
8539;DHT22;4307;53.868;11.680;2022-11-20T13:19:24;3.80;99.90
8539;DHT22;4307;53.868;11.680;2022-11-20T13:21:51;3.90;99.90
8539;DHT22;4307;53.868;11.680;2022-11-20T13:24:25;3.90;99.90
8539;DHT22;4307;53.868;11.680;2022-11-20T13:27:04;3.90;99.90
8539;DHT22;4307;53.868;11.680;2022-11-20T13:29:31;4.00;99.90
8539;DHT22;4307;53.868;11.680;2022-11-20T13:32:06;4.00;99.90
8539;DHT22;4307;53.868;11.680;2022-11-20T13:34:33;4.00;99.90
8539;DHT22;4307;53.868;11.680;2022-11-20T13:37:01;4.00;99.90
8539;DHT22;4307;53.868;11.680;2022-11-20T13:39:31;4.00;99.90
8539;DHT22;4307;53.868;11.680;2022-11-20T13:41:59;3.90;99.90
8539;DHT22;4307;53.868;11.680;2022-11-20T13:44:30;3.90;99.90
8539;DHT22;4307;53.868;11.680;2022-11-20T13:46:59;3.80;99.90
8539;DHT22;4307;53.868;11.680;2022-11-20T13:49:29;3.80;99.90
8539;DHT22;4307;53.868;11.680;2022-11-20T13:52:04;3.70;99.90
8539;DHT22;4307;53.868;11.680;2022-11-20T13:54:53;3.70;99.90
8539;DHT22;4307;53.868;11.680;2022-11-20T14:00:19;3.60;99.90
8539;DHT22;4307;53.868;11.680;2022-11-20T14:02:59;3.60;99.90
8539;DHT22;4307;53.868;11.680;2022-11-20T14:05:28;3.60;99.90
8539;DHT22;4307;53.868;11.680;2022-11-20T14:07:58;3.60;99.90
8539;DHT22;4307;53.868;11.680;2022-11-20T14:10:28;3.50;99.90
8539;DHT22;4307;53.868;11.680;2022-11-20T14:12:55;3.50;99.90
8539;DHT22;4307;53.868;11.680;2022-11-20T14:15:27;3.50;99.90
8539;DHT22;4307;53.868;11.680;2022-11-20T14:17:54;3.50;99.90
8539;DHT22;4307;53.868;11.680;2022-11-20T14:20:23;3.40;99.90
8539;DHT22;4307;53.868;11.680;2022-11-20T14:22:51;3.40;99.90
8539;DHT22;4307;53.868;11.680;2022-11-20T14:25:20;3.30;99.90
8539;DHT22;4307;53.868;11.680;2022-11-20T14:27:51;3.60;99.90
8539;DHT22;4307;53.868;11.680;2022-11-20T14:30:21;3.90;99.90
8539;DHT22;4307;53.868;11.680;2022-11-20T14:32:48;4.20;99.90
8539;DHT22;4307;53.868;11.680;2022-11-20T14:35:20;4.20;99.90
8539;DHT22;4307;53.868;11.680;2022-11-20T14:37:48;4.10;99.90
8539;DHT22;4307;53.868;11.680;2022-11-20T14:40:24;3.80;99.90
8539;DHT22;4307;53.868;11.680;2022-11-20T14:42:52;3.60;99.90
8539;DHT22;4307;53.868;11.680;2022-11-20T14:45:20;3.50;99.90
8539;DHT22;4307;53.868;11.680;2022-11-20T14:47:48;3.40;99.90
8539;DHT22;4307;53.868;11.680;2022-11-20T14:50:19;3.30;99.90
8539;DHT22;4307;53.868;11.680;2022-11-20T14:52:56;3.30;99.90
8539;DHT22;4307;53.868;11.680;2022-11-20T14:55:28;3.20;99.90
8539;DHT22;4307;53.868;11.680;2022-11-20T14:57:57;3.20;99.90
8539;DHT22;4307;53.868;11.680;2022-11-20T15:00:24;3.20;99.90
8539;DHT22;4307;53.868;11.680;2022-11-20T15:02:52;3.20;99.90
8539;DHT22;4307;53.868;11.680;2022-11-20T15:05:20;3.10;99.90
8539;DHT22;4307;53.868;11.680;2022-11-20T15:07:50;3.10;99.90
8539;DHT22;4307;53.868;11.680;2022-11-20T15:10:21;3.10;99.90
8539;DHT22;4307;53.868;11.680;2022-11-20T15:12:49;3.10;99.90
8539;DHT22;4307;53.868;11.680;2022-11-20T15:15:21;3.00;99.90
8539;DHT22;4307;53.868;11.680;2022-11-20T15:17:50;3.00;99.90
8539;DHT22;4307;53.868;11.680;2022-11-20T15:20:17;2.90;99.90
8539;DHT22;4307;53.868;11.680;2022-11-20T15:22:44;2.90;99.90
8539;DHT22;4307;53.868;11.680;2022-11-20T15:25:15;2.80;99.90
8539;DHT22;4307;53.868;11.680;2022-11-20T15:27:43;2.80;99.90
8539;DHT22;4307;53.868;11.680;2022-11-20T15:30:15;2.80;99.90
8539;DHT22;4307;53.868;11.680;2022-11-20T15:32:44;2.80;99.90
8539;DHT22;4307;53.868;11.680;2022-11-20T15:35:11;2.90;99.90
8539;DHT22;4307;53.868;11.680;2022-11-20T15:37:38;2.90;99.90
8539;DHT22;4307;53.868;11.680;2022-11-20T15:40:07;2.80;99.90
8539;DHT22;4307;53.868;11.680;2022-11-20T15:42:34;2.80;99.90
8539;DHT22;4307;53.868;11.680;2022-11-20T15:45:01;2.80;99.90
8539;DHT22;4307;53.868;11.680;2022-11-20T15:47:29;2.80;99.90
8539;DHT22;4307;53.868;11.680;2022-11-20T15:49:58;2.70;99.90
8539;DHT22;4307;53.868;11.680;2022-11-20T15:52:25;2.70;99.90
8539;DHT22;4307;53.868;11.680;2022-11-20T15:54:52;2.70;99.90
8539;DHT22;4307;53.868;11.680;2022-11-20T15:57:19;2.70;99.90
8539;DHT22;4307;53.868;11.680;2022-11-20T15:59:45;2.70;99.90
8539;DHT22;4307;53.868;11.680;2022-11-20T16:02:12;2.70;99.90
8539;DHT22;4307;53.868;11.680;2022-11-20T16:04:39;2.70;99.90
8539;DHT22;4307;53.868;11.680;2022-11-20T16:07:07;2.60;99.90
8539;DHT22;4307;53.868;11.680;2022-11-20T16:09:33;2.50;99.90
8539;DHT22;4307;53.868;11.680;2022-11-20T16:12:00;2.40;99.90
8539;DHT22;4307;53.868;11.680;2022-11-20T16:14:27;2.30;99.90
8539;DHT22;4307;53.868;11.680;2022-11-20T16:17:11;2.20;99.90
8539;DHT22;4307;53.868;11.680;2022-11-20T16:19:38;2.10;99.90